Westhampton Beach, New York
Current Conditions -  °F | °C
As of 9:53 PM on Friday 19 Dec 2014 (Local Time) from KFOK Reporting Station
Clear Clear  
Wind Chill: -5°   Ceiling: Unl
Heat Index: -2°   Visibility: 10mi
Dew Point: -7°   Wind: 5mph
Humidity: 67%   Direction: 340°NNW
Pressure: 30.15"   Gusts: NA
Location:  40.8°N, 72.61°W
Report Text: KFOK 200253Z 34004KT 10SM CLR M02/M07 A3015 RMK AO2 SLP209 T10171072 51007
Loading
Personal Weather Stations






























Interactive Weather Map New forecast layout! Learn more

10-Day Weather Forecast

Advertisements
Track Severe Weather on mobile